createdAt,value
2023-03-22T00:00:58.577Z,10.63
2023-03-22T00:03:26.316Z,9.50
2023-03-22T00:05:59.436Z,11.43
2023-03-22T00:08:27.097Z,9.00
2023-03-22T00:10:54.723Z,8.60
2023-03-22T00:13:22.456Z,8.50
2023-03-22T00:15:50.204Z,9.80
2023-03-22T00:18:19.054Z,8.87
2023-03-22T00:20:50.267Z,8.77
2023-03-22T00:23:19.736Z,8.30
2023-03-22T00:25:48.571Z,8.53
2023-03-22T00:28:17.248Z,10.77
2023-03-22T00:30:51.797Z,9.50
2023-03-22T00:33:19.500Z,11.27
2023-03-22T00:35:50.157Z,9.10
2023-03-22T00:38:20.625Z,7.87
2023-03-22T00:40:49.611Z,9.80
2023-03-22T00:43:17.563Z,8.07
2023-03-22T00:45:45.422Z,7.50
2023-03-22T00:48:13.244Z,10.70
2023-03-22T00:50:41.705Z,8.47
2023-03-22T00:53:09.360Z,7.03
2023-03-22T00:55:38.361Z,8.50
2023-03-22T00:58:06.031Z,8.23
2023-03-22T01:00:33.773Z,8.50
2023-03-22T01:03:04.078Z,9.67
2023-03-22T01:05:33.249Z,10.93
2023-03-22T01:08:02.717Z,11.50
2023-03-22T01:10:30.384Z,7.83
2023-03-22T01:12:59.503Z,8.50
2023-03-22T01:15:27.476Z,10.07
2023-03-22T01:17:55.159Z,10.63
2023-03-22T01:20:22.873Z,9.40
2023-03-22T01:22:50.516Z,9.17
2023-03-22T01:25:18.731Z,9.13
2023-03-22T01:27:46.420Z,10.07
2023-03-22T01:30:16.099Z,10.13
2023-03-22T01:32:43.972Z,8.93
2023-03-22T01:35:11.987Z,10.87
2023-03-22T01:37:39.681Z,9.90
2023-03-22T01:40:08.782Z,11.37
2023-03-22T01:42:36.397Z,10.60
2023-03-22T01:45:37.467Z,7.80
2023-03-22T01:48:10.541Z,8.40
2023-03-22T01:50:42.467Z,8.57
2023-03-22T01:53:13.756Z,6.07
2023-03-22T01:55:42.405Z,9.73
2023-03-22T01:58:10.338Z,9.07
2023-03-22T02:00:39.545Z,10.63
2023-03-22T02:03:07.630Z,9.67
2023-03-22T02:05:36.899Z,7.63
2023-03-22T02:08:05.522Z,6.90
2023-03-22T02:10:33.215Z,7.40
2023-03-22T02:13:30.259Z,8.77
2023-03-22T02:16:10.108Z,8.27
2023-03-22T02:18:50.044Z,9.90
2023-03-22T02:21:39.832Z,7.60
2023-03-22T02:24:45.313Z,7.07
2023-03-22T02:27:40.090Z,7.80
2023-03-22T02:30:24.896Z,7.53
2023-03-22T02:33:32.038Z,10.00
2023-03-22T02:36:22.319Z,8.30
2023-03-22T02:39:12.522Z,8.27
2023-03-22T02:42:05.062Z,7.60
2023-03-22T02:44:41.449Z,7.33
2023-03-22T02:47:16.982Z,6.57
2023-03-22T02:49:51.110Z,8.60
2023-03-22T02:52:26.265Z,8.33
2023-03-22T02:55:02.179Z,7.10
2023-03-22T02:57:34.479Z,8.07
2023-03-22T03:00:08.039Z,7.83
2023-03-22T03:02:36.523Z,7.53
2023-03-22T03:05:04.871Z,6.80
2023-03-22T03:07:32.731Z,8.80
2023-03-22T03:10:02.023Z,10.80
2023-03-22T03:12:30.287Z,8.43
2023-03-22T03:14:58.377Z,7.80
2023-03-22T03:17:48.556Z,6.60
2023-03-22T03:20:30.173Z,7.60
2023-03-22T03:23:15.511Z,7.03
2023-03-22T03:25:50.069Z,7.47
2023-03-22T03:28:30.415Z,9.67
2023-03-22T03:31:02.065Z,8.63
2023-03-22T03:33:34.378Z,10.33
2023-03-22T03:36:06.239Z,8.07
2023-03-22T03:38:37.365Z,7.13
2023-03-22T03:41:11.018Z,7.47
2023-03-22T03:43:40.445Z,8.00
2023-03-22T03:46:09.602Z,11.37
2023-03-22T03:48:39.746Z,8.53
2023-03-22T03:51:08.092Z,11.50
2023-03-22T03:53:35.788Z,8.83
2023-03-22T03:56:03.554Z,7.07
2023-03-22T03:58:32.593Z,9.27
2023-03-22T04:01:00.427Z,9.50
2023-03-22T04:03:28.091Z,9.33
2023-03-22T04:05:55.946Z,9.93
2023-03-22T04:08:23.677Z,10.80
2023-03-22T04:10:52.094Z,10.43
2023-03-22T04:13:21.473Z,7.00
2023-03-22T04:15:53.858Z,8.80
2023-03-22T04:18:21.984Z,9.47
2023-03-22T04:20:53.421Z,7.90
2023-03-22T04:23:22.646Z,8.33
2023-03-22T04:25:50.864Z,8.87
2023-03-22T04:28:19.770Z,9.53
2023-03-22T04:30:51.015Z,7.37
2023-03-22T04:33:22.727Z,7.63
2023-03-22T04:35:56.614Z,9.83
2023-03-22T04:38:25.159Z,8.50
2023-03-22T04:40:52.904Z,13.10
2023-03-22T04:43:22.964Z,9.60
2023-03-22T04:45:50.846Z,7.90
2023-03-22T04:48:22.288Z,7.87
2023-03-22T04:50:53.285Z,9.40
2023-03-22T04:53:27.108Z,10.03
2023-03-22T04:55:56.865Z,8.67
2023-03-22T04:58:25.141Z,8.53
2023-03-22T05:00:53.801Z,9.67
2023-03-22T05:03:23.697Z,12.03
2023-03-22T05:05:52.639Z,8.97
2023-03-22T05:08:21.088Z,9.23
2023-03-22T05:10:48.968Z,8.60
2023-03-22T05:13:16.639Z,9.47
2023-03-22T05:15:44.515Z,8.47
2023-03-22T05:18:14.398Z,7.93
2023-03-22T05:20:43.904Z,10.73
2023-03-22T05:23:11.655Z,10.53
2023-03-22T05:25:39.340Z,9.67
2023-03-22T05:28:07.362Z,13.50
2023-03-22T05:30:35.158Z,9.40
2023-03-22T05:33:05.045Z,12.77
2023-03-22T05:35:34.660Z,11.27
2023-03-22T05:38:04.200Z,8.57
2023-03-22T05:40:32.165Z,9.73
2023-03-22T05:42:59.953Z,9.00
2023-03-22T05:45:28.050Z,11.20
2023-03-22T05:47:55.865Z,11.43
2023-03-22T05:50:24.565Z,9.80
2023-03-22T05:52:53.412Z,8.20
2023-03-22T05:55:23.240Z,8.07
2023-03-22T05:57:52.704Z,10.13
2023-03-22T06:00:21.886Z,10.13
2023-03-22T06:02:52.234Z,9.03
2023-03-22T06:05:21.121Z,9.97
2023-03-22T06:07:49.108Z,11.93
2023-03-22T06:10:17.716Z,11.23
2023-03-22T06:12:46.832Z,10.23
2023-03-22T06:15:14.570Z,12.53
2023-03-22T06:17:43.012Z,11.13
2023-03-22T06:20:13.249Z,12.77
2023-03-22T06:22:41.488Z,12.93
2023-03-22T06:25:10.981Z,13.57
2023-03-22T06:27:39.162Z,10.10
2023-03-22T06:30:10.430Z,13.63
2023-03-22T06:32:38.211Z,9.83
2023-03-22T06:35:06.865Z,10.03
2023-03-22T06:37:34.626Z,10.37
2023-03-22T06:40:02.329Z,11.53
2023-03-22T06:42:30.942Z,12.07
2023-03-22T06:44:58.703Z,11.13
2023-03-22T06:47:27.793Z,12.17
2023-03-22T06:49:55.557Z,10.50
2023-03-22T06:52:23.438Z,11.63
2023-03-22T06:54:51.250Z,9.33
2023-03-22T06:57:19.374Z,11.70
2023-03-22T06:59:47.105Z,10.23
2023-03-22T07:02:14.974Z,8.87
2023-03-22T07:04:44.738Z,13.63
2023-03-22T07:07:12.596Z,15.83
2023-03-22T07:09:40.682Z,11.63
2023-03-22T07:12:08.631Z,7.77
2023-03-22T07:14:36.900Z,10.07
2023-03-22T07:17:04.721Z,10.20
2023-03-22T07:19:32.542Z,9.83
2023-03-22T07:22:01.693Z,11.53
2023-03-22T07:24:29.359Z,11.60
2023-03-22T07:26:57.302Z,9.13
2023-03-22T07:29:24.997Z,8.87
2023-03-22T07:31:52.794Z,10.07
2023-03-22T07:34:20.641Z,10.30
2023-03-22T07:36:48.417Z,12.63
2023-03-22T07:39:17.533Z,10.80
2023-03-22T07:41:45.413Z,11.27
2023-03-22T07:44:18.026Z,12.83
2023-03-22T07:46:46.929Z,7.33
2023-03-22T07:49:15.602Z,6.60
2023-03-22T07:51:43.479Z,7.93
2023-03-22T07:54:14.014Z,10.57
2023-03-22T07:56:48.374Z,11.77
2023-03-22T07:59:16.691Z,6.90
2023-03-22T08:01:44.710Z,9.10
2023-03-22T08:04:12.504Z,8.70
2023-03-22T08:06:42.738Z,11.63
2023-03-22T08:09:10.455Z,10.37
2023-03-22T08:11:38.209Z,9.67
2023-03-22T08:14:07.509Z,14.03
2023-03-22T08:16:35.352Z,7.43
2023-03-22T08:19:03.257Z,7.37
2023-03-22T08:21:31.463Z,9.50
2023-03-22T08:23:59.253Z,9.33
2023-03-22T08:26:27.310Z,6.80
2023-03-22T08:28:55.093Z,10.60
2023-03-22T08:31:24.385Z,7.07
2023-03-22T08:33:52.083Z,8.17
2023-03-22T08:36:22.708Z,8.70
2023-03-22T08:38:50.636Z,7.53
2023-03-22T08:41:18.399Z,4.70
2023-03-22T08:43:46.083Z,3.47
2023-03-22T08:46:13.895Z,3.43
2023-03-22T08:48:50.496Z,3.20
2023-03-22T08:51:19.310Z,2.47
2023-03-22T08:53:47.284Z,1.70
2023-03-22T08:56:16.596Z,1.80
2023-03-22T08:58:46.668Z,2.57
2023-03-22T09:01:15.195Z,6.03
2023-03-22T09:03:44.842Z,3.63
2023-03-22T09:06:12.589Z,3.13
2023-03-22T09:08:41.283Z,3.33
2023-03-22T09:11:10.764Z,4.40
2023-03-22T09:13:38.941Z,5.13
2023-03-22T09:16:09.439Z,3.17
2023-03-22T09:18:37.834Z,12.43
2023-03-22T09:21:08.511Z,3.73
2023-03-22T09:23:37.902Z,5.67
2023-03-22T09:26:11.588Z,4.50
2023-03-22T09:28:39.345Z,5.17
2023-03-22T09:31:10.394Z,4.25
2023-03-22T09:33:41.432Z,2.28
2023-03-22T09:36:12.079Z,5.25
2023-03-22T09:38:41.340Z,4.18
2023-03-22T09:41:15.917Z,5.57
2023-03-22T09:43:47.729Z,3.60
2023-03-22T09:46:18.803Z,3.70
2023-03-22T09:48:49.450Z,3.80
2023-03-22T09:51:30.150Z,3.33
2023-03-22T09:53:58.376Z,2.53
2023-03-22T09:56:29.080Z,2.20
2023-03-22T09:59:05.668Z,3.00
2023-03-22T10:01:44.425Z,3.30
2023-03-22T10:04:32.562Z,3.83
2023-03-22T10:07:11.233Z,3.28
2023-03-22T10:09:50.618Z,2.28
2023-03-22T10:12:26.272Z,4.18
2023-03-22T10:15:04.643Z,1.98
2023-03-22T10:17:33.139Z,2.58
2023-03-22T10:20:06.223Z,2.45
2023-03-22T10:22:39.714Z,2.05
2023-03-22T10:25:09.429Z,1.10
2023-03-22T10:27:38.543Z,3.13
2023-03-22T10:30:19.451Z,2.25
2023-03-22T10:32:57.850Z,1.23
2023-03-22T10:35:26.234Z,2.92
2023-03-22T10:37:58.741Z,3.63
2023-03-22T10:40:29.975Z,3.97
2023-03-22T10:43:03.465Z,2.53
2023-03-22T10:45:47.301Z,1.13
2023-03-22T10:48:23.892Z,2.45
2023-03-22T10:50:55.685Z,2.05
2023-03-22T10:53:34.213Z,4.70
2023-03-22T10:56:02.030Z,2.60
2023-03-22T10:58:31.769Z,2.17
2023-03-22T11:01:01.432Z,3.38
2023-03-22T11:03:32.093Z,3.15
2023-03-22T11:06:06.662Z,0.93
2023-03-22T11:08:42.765Z,3.08
2023-03-22T11:11:17.869Z,1.17
2023-03-22T11:13:52.236Z,1.85
2023-03-22T11:16:20.303Z,1.35
2023-03-22T11:18:48.432Z,1.30
2023-03-22T11:21:17.996Z,1.05
2023-03-22T11:23:55.041Z,1.42
2023-03-22T11:26:35.739Z,2.13
2023-03-22T11:29:12.935Z,1.83
2023-03-22T11:31:55.808Z,2.20
2023-03-22T11:34:27.138Z,1.15
2023-03-22T11:36:58.166Z,3.15
2023-03-22T11:39:29.311Z,0.90
2023-03-22T11:42:03.901Z,1.40
2023-03-22T11:44:37.975Z,1.65
2023-03-22T11:47:09.038Z,1.63
2023-03-22T11:49:43.829Z,3.97
2023-03-22T11:52:17.324Z,3.15
2023-03-22T11:54:48.983Z,2.53
2023-03-22T11:57:20.422Z,1.17
2023-03-22T11:59:54.031Z,2.33
2023-03-22T12:02:26.640Z,1.95
2023-03-22T12:05:01.739Z,1.65
2023-03-22T12:07:31.869Z,2.63
2023-03-22T12:10:06.450Z,1.98
2023-03-22T12:12:38.423Z,4.05
2023-03-22T12:15:09.393Z,2.92
2023-03-22T12:17:42.629Z,1.00
2023-03-22T12:20:19.477Z,3.45
2023-03-22T12:22:52.728Z,2.45
2023-03-22T12:25:28.383Z,3.45
2023-03-22T12:27:59.343Z,1.77
2023-03-22T12:30:28.719Z,2.38
2023-03-22T12:33:02.727Z,3.88
2023-03-22T12:35:34.383Z,4.03
2023-03-22T12:38:10.282Z,2.35
2023-03-22T12:40:42.348Z,2.63
2023-03-22T12:43:17.927Z,2.33
2023-03-22T12:45:50.047Z,3.35
2023-03-22T12:48:21.750Z,1.58
2023-03-22T12:50:53.948Z,2.00
2023-03-22T12:53:23.897Z,2.38
2023-03-22T12:55:54.775Z,2.03
2023-03-22T12:58:24.861Z,2.25
2023-03-22T13:00:57.971Z,2.35
2023-03-22T13:03:28.795Z,2.70
2023-03-22T13:06:08.741Z,2.05
2023-03-22T13:09:15.923Z,2.15
2023-03-22T13:11:46.679Z,2.35
2023-03-22T13:14:56.092Z,4.15
2023-03-22T13:17:42.906Z,1.70
2023-03-22T13:20:30.886Z,1.75
2023-03-22T13:23:11.896Z,1.37
2023-03-22T13:25:44.707Z,1.73
2023-03-22T13:28:27.089Z,3.25
2023-03-22T13:30:56.764Z,1.63
2023-03-22T13:33:28.698Z,1.80
2023-03-22T13:35:59.063Z,3.37
2023-03-22T13:38:29.650Z,1.83
2023-03-22T13:41:02.740Z,2.03
2023-03-22T13:43:34.236Z,1.90
2023-03-22T13:46:44.094Z,5.00
2023-03-22T13:49:47.681Z,3.27
2023-03-22T13:52:27.025Z,1.33
2023-03-22T13:54:58.382Z,1.97
2023-03-22T13:57:49.182Z,1.93
2023-03-22T14:00:36.063Z,2.30
2023-03-22T14:03:12.769Z,1.60
2023-03-22T14:05:40.998Z,3.03
2023-03-22T14:08:20.622Z,1.77
2023-03-22T14:10:53.716Z,2.17
2023-03-22T14:13:30.657Z,5.17
2023-03-22T14:16:07.638Z,2.33
2023-03-22T14:18:41.007Z,1.97
2023-03-22T14:21:14.167Z,3.17
